CheckWX is a tool to help pilots better visualize weather data.  It is not intended as a substitute for an official pre-flight weather briefing.

23:34:56 UTC

GMTN METAR
Saniat Rmel Airport
Morocco
Current

35 mins ago

GMTN 222300Z 07008KT 9999 SCT010 18/16 Q1017 NOSIG
Observed
May-22 @ 23:00 UTC
Wind
  • 070° at 8 KTS
Visibility
10,000+ meters
Flight Rules
VFR
Cloud Levels
  • Scattered at 1,000' AGL
Temperature
18°C / 64°F
Dewpoint
16°C / 61°F
Humidity
88%
Altimeter
30.03" Hg
Pressure
1016.92 hPa
Previous

2 hours ago

GMTN 222200Z 07009KT 8000 SCT010 18/16 Q1017 NOSIG
Observed
May-22 @ 22:00 UTC
Wind
  • 070° at 9 KTS
Visibility
7,998 meters
Flight Rules
MVFR
Cloud Levels
  • Scattered at 1,000' AGL
Temperature
18°C / 64°F
Dewpoint
16°C / 61°F
Humidity
88%
Altimeter
30.03" Hg
Pressure
1016.92 hPa
Previous

3 hours ago

GMTN 222100Z 07009KT 9999 SCT010 18/16 Q1016 NOSIG
Observed
May-22 @ 21:00 UTC
Wind
  • 070° at 9 KTS
Visibility
10,000+ meters
Flight Rules
VFR
Cloud Levels
  • Scattered at 1,000' AGL
Temperature
18°C / 64°F
Dewpoint
16°C / 61°F
Humidity
88%
Altimeter
30" Hg
Pressure
1015.92 hPa